createdAt,value
2022-10-28T00:01:24.789Z,14.30
2022-10-28T00:03:54.672Z,14.20
2022-10-28T00:06:34.003Z,14.20
2022-10-28T00:09:01.437Z,14.20
2022-10-28T00:11:31.785Z,14.10
2022-10-28T00:14:01.663Z,14.10
2022-10-28T00:16:32.226Z,14.00
2022-10-28T00:19:01.069Z,14.00
2022-10-28T00:21:30.930Z,13.90
2022-10-28T00:23:58.412Z,13.90
2022-10-28T00:26:33.696Z,13.90
2022-10-28T00:29:20.564Z,14.00
2022-10-28T00:31:48.615Z,14.00
2022-10-28T00:34:17.794Z,13.90
2022-10-28T00:36:46.312Z,13.90
2022-10-28T00:39:15.000Z,13.90
2022-10-28T00:41:45.303Z,14.00
2022-10-28T00:44:37.616Z,13.90
2022-10-28T00:47:25.947Z,13.90
2022-10-28T00:49:57.829Z,13.90
2022-10-28T00:52:28.365Z,13.90
2022-10-28T00:54:57.645Z,13.80
2022-10-28T00:57:33.778Z,13.80
2022-10-28T01:00:04.216Z,13.80
2022-10-28T01:02:34.546Z,13.80
2022-10-28T01:05:02.254Z,13.80
2022-10-28T01:07:30.802Z,13.80
2022-10-28T01:09:58.357Z,13.80
2022-10-28T01:12:27.209Z,13.80
2022-10-28T01:15:14.996Z,13.80
2022-10-28T01:18:16.477Z,13.80
2022-10-28T01:21:02.039Z,13.80
2022-10-28T01:23:41.940Z,13.80
2022-10-28T01:26:35.367Z,13.80
2022-10-28T01:29:02.324Z,13.80
2022-10-28T01:31:46.632Z,13.70
2022-10-28T01:34:13.808Z,13.80
2022-10-28T01:36:57.149Z,13.70
2022-10-28T01:39:52.636Z,13.70
2022-10-28T01:42:44.891Z,13.80
2022-10-28T01:45:19.001Z,13.70
2022-10-28T01:48:03.168Z,13.70
2022-10-28T01:50:53.316Z,13.70
2022-10-28T01:53:31.879Z,13.70
2022-10-28T01:56:03.022Z,13.70
2022-10-28T01:58:32.826Z,13.70
2022-10-28T02:01:04.767Z,13.80
2022-10-28T02:03:32.356Z,13.60
2022-10-28T02:06:04.780Z,13.60
2022-10-28T02:08:58.168Z,13.60
2022-10-28T02:11:41.345Z,13.50
2022-10-28T02:14:47.697Z,13.50
2022-10-28T02:17:39.417Z,13.50
2022-10-28T02:20:30.562Z,13.50
2022-10-28T02:23:08.789Z,13.50
2022-10-28T02:26:04.581Z,13.40
2022-10-28T02:29:00.142Z,13.50
2022-10-28T02:31:41.189Z,13.50
2022-10-28T02:34:13.368Z,13.50
2022-10-28T02:36:44.381Z,13.40
2022-10-28T02:39:15.395Z,13.40
2022-10-28T02:42:01.340Z,13.40
2022-10-28T02:44:33.281Z,13.50
2022-10-28T02:47:06.861Z,13.50
2022-10-28T02:49:37.690Z,13.50
2022-10-28T02:52:06.929Z,13.50
2022-10-28T02:54:57.111Z,13.50
2022-10-28T02:57:40.580Z,13.60
2022-10-28T03:00:15.089Z,13.50
2022-10-28T03:02:45.372Z,13.60
2022-10-28T03:05:12.957Z,13.60
2022-10-28T03:07:42.609Z,13.60
2022-10-28T03:10:10.632Z,13.60
2022-10-28T03:12:37.998Z,13.50
2022-10-28T03:15:07.829Z,13.60
2022-10-28T03:17:35.383Z,13.60
2022-10-28T03:20:02.820Z,13.60
2022-10-28T03:22:29.946Z,13.50
2022-10-28T03:24:57.100Z,13.60
2022-10-28T03:27:26.478Z,13.60
2022-10-28T03:29:53.733Z,13.60
2022-10-28T03:34:48.010Z,13.60
2022-10-28T03:37:15.489Z,13.60
2022-10-28T03:39:42.703Z,13.60
2022-10-28T03:42:12.333Z,13.60
2022-10-28T03:44:39.511Z,13.70
2022-10-28T03:47:08.912Z,13.50
2022-10-28T03:49:36.363Z,13.60
2022-10-28T03:52:04.293Z,13.60
2022-10-28T03:54:31.791Z,13.60
2022-10-28T03:56:59.021Z,13.50
2022-10-28T03:59:26.145Z,13.50
2022-10-28T04:01:53.386Z,13.40
2022-10-28T04:04:20.865Z,13.40
2022-10-28T04:06:48.314Z,13.40
2022-10-28T04:09:15.755Z,13.40
2022-10-28T04:11:43.140Z,13.30
2022-10-28T04:14:10.368Z,13.40
2022-10-28T04:16:37.775Z,13.40
2022-10-28T04:19:05.086Z,13.30
2022-10-28T04:21:34.677Z,13.30
2022-10-28T04:24:01.965Z,13.40
2022-10-28T04:26:32.191Z,13.40
2022-10-28T04:29:01.073Z,13.40
2022-10-28T04:31:28.264Z,13.40
2022-10-28T04:33:55.345Z,13.30
2022-10-28T04:36:22.869Z,13.30
2022-10-28T04:38:52.265Z,13.30
2022-10-28T04:41:19.478Z,13.20
2022-10-28T04:43:47.586Z,13.20
2022-10-28T04:46:14.791Z,13.30
2022-10-28T04:48:47.420Z,13.30
2022-10-28T04:51:15.417Z,13.30
2022-10-28T04:53:42.743Z,13.30
2022-10-28T04:56:10.230Z,13.30
2022-10-28T04:58:37.325Z,13.30
2022-10-28T05:01:11.059Z,13.20
2022-10-28T05:03:38.479Z,13.30
2022-10-28T05:06:05.831Z,13.30
2022-10-28T05:08:32.984Z,13.30
2022-10-28T05:11:00.615Z,13.30
2022-10-28T05:13:28.149Z,13.30
2022-10-28T05:15:58.364Z,13.30
2022-10-28T05:18:25.669Z,13.30
2022-10-28T05:20:55.052Z,13.30
2022-10-28T05:23:26.980Z,13.30
2022-10-28T05:25:57.291Z,13.20
2022-10-28T05:28:24.839Z,13.30
2022-10-28T05:30:52.052Z,13.20
2022-10-28T05:33:19.292Z,13.20
2022-10-28T05:35:46.836Z,13.20
2022-10-28T05:38:14.123Z,13.20
2022-10-28T05:40:41.330Z,13.30
2022-10-28T05:43:10.394Z,13.30
2022-10-28T05:45:38.477Z,13.30
2022-10-28T05:48:06.346Z,13.30
2022-10-28T05:50:33.707Z,13.30
2022-10-28T05:53:01.285Z,13.30
2022-10-28T05:55:29.815Z,13.30
2022-10-28T05:57:57.637Z,13.30
2022-10-28T06:00:26.472Z,13.30
2022-10-28T06:03:10.140Z,13.40
2022-10-28T06:05:39.099Z,13.40
2022-10-28T06:08:09.431Z,13.40
2022-10-28T06:10:36.730Z,13.40
2022-10-28T06:13:02.573Z,13.40
2022-10-28T06:15:30.401Z,13.40
2022-10-28T06:17:57.812Z,13.40
2022-10-28T06:20:25.167Z,13.40
2022-10-28T06:22:55.852Z,13.40
2022-10-28T06:25:25.086Z,13.40
2022-10-28T06:27:57.286Z,13.40
2022-10-28T06:30:26.253Z,13.40
2022-10-28T06:32:56.805Z,13.40
2022-10-28T06:35:24.229Z,13.40
2022-10-28T06:37:57.759Z,13.40
2022-10-28T06:40:25.691Z,13.40
2022-10-28T06:43:03.310Z,13.30
2022-10-28T06:45:32.278Z,13.40
2022-10-28T06:48:03.599Z,13.30
2022-10-28T06:50:31.931Z,13.30
2022-10-28T06:52:59.749Z,13.40
2022-10-28T06:55:28.212Z,13.30
2022-10-28T06:57:59.518Z,13.30
2022-10-28T07:00:28.755Z,13.30
2022-10-28T07:02:57.107Z,13.30
2022-10-28T07:05:27.224Z,13.40
2022-10-28T07:08:08.237Z,13.30
2022-10-28T07:10:38.648Z,13.40
2022-10-28T07:13:07.456Z,13.40
2022-10-28T07:15:34.707Z,13.40
2022-10-28T07:18:05.268Z,13.50
2022-10-28T07:20:33.178Z,13.50
2022-10-28T07:23:01.839Z,13.50
2022-10-28T07:25:34.635Z,13.60
2022-10-28T07:28:01.713Z,13.70
2022-10-28T07:30:29.615Z,13.60
2022-10-28T07:33:01.500Z,13.70
2022-10-28T07:35:29.725Z,13.80
2022-10-28T07:37:57.994Z,13.90
2022-10-28T07:40:26.080Z,14.10
2022-10-28T07:42:53.668Z,14.20
2022-10-28T07:45:21.404Z,14.30
2022-10-28T07:47:48.729Z,14.30
2022-10-28T07:50:19.990Z,14.40
2022-10-28T07:52:49.838Z,14.50
2022-10-28T07:55:17.187Z,14.60
2022-10-28T07:57:44.381Z,14.60
2022-10-28T08:00:12.332Z,14.70
2022-10-28T08:02:42.911Z,14.70
2022-10-28T08:05:15.808Z,14.80
2022-10-28T08:07:43.168Z,14.90
2022-10-28T08:10:10.343Z,14.90
2022-10-28T08:12:39.621Z,14.90
2022-10-28T08:15:09.658Z,15.00
2022-10-28T08:17:37.151Z,15.10
2022-10-28T08:20:05.940Z,15.20
2022-10-28T08:22:33.195Z,15.30
2022-10-28T08:25:02.430Z,15.30
2022-10-28T08:27:29.635Z,15.40
2022-10-28T08:29:56.932Z,15.50
2022-10-28T08:32:28.387Z,15.50
2022-10-28T08:34:55.870Z,15.60
2022-10-28T08:37:23.122Z,15.70
2022-10-28T08:39:50.229Z,15.70
2022-10-28T08:42:32.249Z,15.70
2022-10-28T08:45:18.973Z,15.80
2022-10-28T08:48:16.904Z,15.80
2022-10-28T08:50:55.060Z,15.80
2022-10-28T08:53:28.680Z,15.90
2022-10-28T08:56:08.018Z,15.90
2022-10-28T08:58:39.218Z,15.90
2022-10-28T09:01:14.119Z,16.00
2022-10-28T09:03:45.287Z,16.00
2022-10-28T09:06:12.477Z,16.00
2022-10-28T09:08:48.189Z,16.00
2022-10-28T09:11:27.556Z,16.10
2022-10-28T09:14:23.492Z,16.10
2022-10-28T09:16:56.199Z,16.10
2022-10-28T09:19:42.611Z,16.10
2022-10-28T09:22:22.012Z,16.00
2022-10-28T09:24:49.210Z,16.00
2022-10-28T09:27:46.600Z,16.10
2022-10-28T09:30:22.938Z,16.20
2022-10-28T09:33:05.225Z,16.20
2022-10-28T09:35:38.096Z,16.20
2022-10-28T09:38:33.477Z,16.20
2022-10-28T09:41:16.927Z,16.30
2022-10-28T09:43:53.608Z,16.30
2022-10-28T09:46:23.636Z,16.30
2022-10-28T09:48:55.898Z,16.40
2022-10-28T09:51:43.415Z,16.40
2022-10-28T09:54:13.197Z,16.40
2022-10-28T09:56:41.125Z,16.40
2022-10-28T09:59:13.903Z,16.50
2022-10-28T10:01:43.581Z,16.50
2022-10-28T10:04:39.134Z,16.60
2022-10-28T10:07:15.186Z,16.60
2022-10-28T10:09:44.503Z,16.70
2022-10-28T10:12:13.663Z,16.70
2022-10-28T10:14:45.481Z,16.80
2022-10-28T10:17:18.337Z,16.90
2022-10-28T10:20:15.541Z,16.90
2022-10-28T10:22:45.570Z,17.00
2022-10-28T10:25:18.888Z,17.10
2022-10-28T10:27:59.563Z,17.20
2022-10-28T10:30:33.837Z,17.30
2022-10-28T10:33:02.911Z,17.40
2022-10-28T10:35:35.121Z,17.50
2022-10-28T10:38:05.790Z,17.60
2022-10-28T10:40:48.260Z,17.60
2022-10-28T10:43:34.705Z,17.70
2022-10-28T10:46:18.486Z,17.80
2022-10-28T10:48:45.808Z,18.00
2022-10-28T10:51:27.757Z,18.10
2022-10-28T10:54:03.653Z,18.20
2022-10-28T10:56:32.709Z,18.30
2022-10-28T10:59:04.169Z,18.40
2022-10-28T11:01:43.582Z,18.60
2022-10-28T11:04:18.935Z,18.80
2022-10-28T11:06:52.163Z,18.90
2022-10-28T11:09:42.602Z,19.00
2022-10-28T11:12:32.194Z,19.10
2022-10-28T11:15:27.385Z,19.20
2022-10-28T11:18:21.390Z,19.20
2022-10-28T11:21:10.542Z,19.20
2022-10-28T11:23:47.985Z,19.30
2022-10-28T11:26:25.048Z,19.30
2022-10-28T11:29:17.895Z,19.30
2022-10-28T11:32:05.742Z,19.40
2022-10-28T11:34:39.141Z,19.50
2022-10-28T11:37:51.397Z,19.50
2022-10-28T11:40:28.104Z,19.60
2022-10-28T11:43:52.138Z,19.60
2022-10-28T11:46:42.066Z,19.50
2022-10-28T11:49:40.180Z,19.50
2022-10-28T11:52:45.525Z,19.50
2022-10-28T11:55:19.144Z,19.50
2022-10-28T11:58:07.185Z,19.40
2022-10-28T12:01:09.200Z,19.40
2022-10-28T12:04:05.456Z,19.40
2022-10-28T12:07:01.491Z,19.40
2022-10-28T12:10:02.854Z,19.30
2022-10-28T12:12:51.384Z,19.30
2022-10-28T12:15:48.056Z,19.30
2022-10-28T12:18:38.065Z,19.30
2022-10-28T12:24:16.850Z,19.40
2022-10-28T12:27:15.341Z,19.50
2022-10-28T12:29:51.905Z,19.60
2022-10-28T12:32:27.735Z,19.60
2022-10-28T12:35:16.757Z,19.70
2022-10-28T12:38:04.910Z,19.70
2022-10-28T12:40:53.122Z,19.70
2022-10-28T12:43:59.368Z,19.70
2022-10-28T12:46:35.380Z,19.70
2022-10-28T12:49:11.860Z,19.70
2022-10-28T12:51:41.928Z,19.80
2022-10-28T12:54:23.588Z,19.70
2022-10-28T12:56:57.499Z,19.70
2022-10-28T12:59:41.951Z,19.60
2022-10-28T13:02:22.436Z,19.50
2022-10-28T13:04:50.200Z,19.50
2022-10-28T13:07:57.692Z,19.50
2022-10-28T13:10:45.960Z,19.50
2022-10-28T13:13:45.939Z,19.40
2022-10-28T13:16:41.718Z,19.40
2022-10-28T13:19:25.778Z,19.30
2022-10-28T13:22:08.414Z,19.30
2022-10-28T13:24:35.823Z,19.30
2022-10-28T13:27:05.458Z,19.30
2022-10-28T13:29:38.265Z,19.20
2022-10-28T13:32:06.028Z,19.20
2022-10-28T13:34:41.405Z,19.20
2022-10-28T13:37:21.253Z,19.10
2022-10-28T13:39:48.996Z,19.10
2022-10-28T13:42:18.924Z,19.00
2022-10-28T13:44:58.015Z,19.00
2022-10-28T13:47:36.188Z,19.00
2022-10-28T13:50:09.452Z,18.90
2022-10-28T13:52:40.890Z,18.90
2022-10-28T13:55:14.390Z,18.80
2022-10-28T13:57:48.127Z,18.80
2022-10-28T14:00:18.872Z,18.80
2022-10-28T14:02:59.844Z,18.70
2022-10-28T14:05:48.973Z,18.60
2022-10-28T14:08:41.468Z,18.70
2022-10-28T14:11:24.399Z,18.60
2022-10-28T14:14:29.717Z,18.60
2022-10-28T14:17:21.095Z,18.60
2022-10-28T14:19:51.196Z,18.60
2022-10-28T14:22:33.798Z,18.60
2022-10-28T14:25:02.066Z,18.50
2022-10-28T14:27:45.082Z,18.60
2022-10-28T14:30:14.881Z,18.60
2022-10-28T14:33:00.437Z,18.60
2022-10-28T14:35:38.735Z,18.60
2022-10-28T14:38:37.005Z,18.60
2022-10-28T14:41:17.009Z,18.60
2022-10-28T14:43:55.734Z,18.60
2022-10-28T14:46:59.121Z,18.50
2022-10-28T14:49:30.502Z,18.50
2022-10-28T14:52:04.519Z,18.40
2022-10-28T14:54:51.835Z,18.40
2022-10-28T14:57:23.167Z,18.40
2022-10-28T14:59:51.961Z,18.30
2022-10-28T15:02:29.926Z,18.30
2022-10-28T15:05:12.723Z,18.30
2022-10-28T15:07:43.393Z,18.30
2022-10-28T15:10:28.434Z,18.20
2022-10-28T15:12:58.216Z,18.20
2022-10-28T15:15:35.807Z,18.20
2022-10-28T15:18:20.115Z,18.10
2022-10-28T15:20:47.656Z,18.10
2022-10-28T15:23:23.750Z,18.10
2022-10-28T15:26:11.702Z,18.10
2022-10-28T15:28:40.389Z,18.00
2022-10-28T15:31:11.421Z,18.00
2022-10-28T15:33:41.049Z,17.90
2022-10-28T15:36:18.090Z,17.90
2022-10-28T15:38:50.085Z,17.90
2022-10-28T15:41:23.843Z,17.90
2022-10-28T15:44:23.165Z,17.90
2022-10-28T15:46:51.074Z,17.90
2022-10-28T15:49:34.358Z,17.80
2022-10-28T15:52:16.806Z,17.80
2022-10-28T15:54:58.526Z,17.80
2022-10-28T15:57:29.302Z,17.80
2022-10-28T16:00:30.277Z,17.80
2022-10-28T16:02:59.685Z,17.80
2022-10-28T16:05:33.529Z,17.70
2022-10-28T16:08:21.894Z,17.70
2022-10-28T16:11:02.144Z,17.70
2022-10-28T16:13:40.264Z,17.70
2022-10-28T16:16:16.544Z,17.60
2022-10-28T16:18:51.000Z,17.60
2022-10-28T16:21:27.372Z,17.60
2022-10-28T16:23:59.244Z,17.60
2022-10-28T16:26:27.357Z,17.50
2022-10-28T16:28:55.206Z,17.50
2022-10-28T16:31:25.169Z,17.50
2022-10-28T16:34:15.920Z,17.50
2022-10-28T16:36:48.447Z,17.50
2022-10-28T16:39:15.830Z,17.40
2022-10-28T16:41:43.447Z,17.30
2022-10-28T16:44:18.255Z,17.30
2022-10-28T16:46:45.847Z,17.30
2022-10-28T16:49:13.152Z,17.30
2022-10-28T16:51:40.312Z,17.30
2022-10-28T16:54:08.081Z,17.30
2022-10-28T16:56:35.576Z,17.30
2022-10-28T16:59:02.889Z,17.20
2022-10-28T17:01:30.250Z,17.20
2022-10-28T17:04:00.381Z,17.20
2022-10-28T17:06:27.843Z,17.10
2022-10-28T17:09:51.147Z,17.10
2022-10-28T17:12:18.275Z,17.10
2022-10-28T17:14:56.912Z,17.00
2022-10-28T17:17:24.501Z,17.00
2022-10-28T17:19:52.114Z,17.00
2022-10-28T17:22:19.256Z,17.00
2022-10-28T17:24:46.652Z,17.00
2022-10-28T17:27:14.179Z,17.00
2022-10-28T17:29:41.853Z,16.90
2022-10-28T17:32:09.231Z,17.00
2022-10-28T17:34:39.000Z,17.00
2022-10-28T17:37:07.884Z,16.90
2022-10-28T17:39:52.547Z,17.00
2022-10-28T17:42:31.984Z,17.00
2022-10-28T17:44:59.965Z,16.90
2022-10-28T17:47:27.404Z,16.90
2022-10-28T17:49:54.885Z,16.90
2022-10-28T17:52:24.007Z,16.90
2022-10-28T17:54:56.651Z,16.30
2022-10-28T17:57:23.849Z,16.90
2022-10-28T17:59:51.315Z,16.90
2022-10-28T18:02:18.831Z,16.90
2022-10-28T18:04:46.488Z,16.90
2022-10-28T18:07:14.064Z,16.90
2022-10-28T18:09:43.680Z,16.90
2022-10-28T18:12:19.021Z,16.90
2022-10-28T18:14:46.241Z,16.80
2022-10-28T18:17:14.747Z,16.80
2022-10-28T18:19:41.969Z,16.80
2022-10-28T18:22:09.228Z,16.80
2022-10-28T18:24:36.339Z,16.80
2022-10-28T18:27:03.645Z,16.70
2022-10-28T18:29:33.339Z,16.50
2022-10-28T18:32:04.073Z,16.70
2022-10-28T18:34:32.028Z,16.60
2022-10-28T18:36:59.929Z,16.60
2022-10-28T18:39:27.270Z,16.60
2022-10-28T18:41:59.883Z,16.60
2022-10-28T18:44:32.201Z,16.60
2022-10-28T18:47:01.805Z,16.60
2022-10-28T18:49:29.868Z,16.50
2022-10-28T18:51:57.124Z,16.50
2022-10-28T18:54:25.203Z,16.50
2022-10-28T18:56:57.548Z,16.50
2022-10-28T18:59:24.982Z,16.40
2022-10-28T19:01:52.329Z,16.40
2022-10-28T19:04:19.871Z,16.40
2022-10-28T19:10:03.407Z,16.40
2022-10-28T19:26:25.573Z,16.30
2022-10-28T19:28:53.178Z,16.30
2022-10-28T19:31:49.187Z,16.00
2022-10-28T19:34:20.810Z,16.30
2022-10-28T19:37:15.710Z,16.20
2022-10-28T19:39:43.036Z,16.20
2022-10-28T19:42:10.201Z,16.20
2022-10-28T19:44:37.455Z,16.20
2022-10-28T19:47:04.519Z,16.20
2022-10-28T19:49:36.399Z,16.20
2022-10-28T19:52:06.683Z,16.20
2022-10-28T19:54:34.367Z,16.20
2022-10-28T19:57:01.520Z,16.10
2022-10-28T19:59:29.145Z,16.10
2022-10-28T20:01:56.318Z,16.10
2022-10-28T20:04:23.902Z,16.10
2022-10-28T20:06:51.556Z,16.10
2022-10-28T20:09:19.278Z,16.00
2022-10-28T20:11:46.541Z,16.00
2022-10-28T20:14:13.992Z,16.00
2022-10-28T20:16:42.946Z,16.00
2022-10-28T20:19:10.571Z,16.00
2022-10-28T20:21:38.219Z,16.00
2022-10-28T20:24:07.051Z,16.00
2022-10-28T20:26:36.035Z,15.90
2022-10-28T20:29:03.455Z,16.00
2022-10-28T20:31:32.103Z,16.00
2022-10-28T20:34:01.840Z,16.00
2022-10-28T20:36:31.842Z,16.00
2022-10-28T20:39:05.349Z,16.00
2022-10-28T20:41:34.568Z,15.90
2022-10-28T20:44:03.055Z,15.90
2022-10-28T20:46:30.625Z,16.00
2022-10-28T20:49:05.108Z,16.00
2022-10-28T20:51:40.208Z,15.90
2022-10-28T20:54:08.120Z,16.00
2022-10-28T20:56:37.595Z,15.90
2022-10-28T20:59:05.461Z,15.90
2022-10-28T21:01:35.574Z,15.90
2022-10-28T21:04:08.163Z,15.80
2022-10-28T21:06:36.666Z,15.80
2022-10-28T21:09:05.223Z,15.80
2022-10-28T21:11:32.672Z,15.70
2022-10-28T21:14:01.433Z,15.70
2022-10-28T21:16:29.650Z,15.60
2022-10-28T21:18:57.402Z,15.60
2022-10-28T21:21:25.501Z,15.50
2022-10-28T21:23:53.660Z,15.50
2022-10-28T21:26:21.668Z,15.40
2022-10-28T21:28:51.800Z,15.40
2022-10-28T21:31:20.609Z,15.30
2022-10-28T21:36:21.752Z,15.20
2022-10-28T21:38:55.022Z,15.20
2022-10-28T21:41:23.593Z,15.20
2022-10-28T21:43:52.697Z,15.10
2022-10-28T21:46:26.046Z,15.00
2022-10-28T21:49:05.568Z,15.00
2022-10-28T21:51:33.181Z,15.00
2022-10-28T21:54:03.518Z,14.90
2022-10-28T21:56:30.985Z,14.80
2022-10-28T21:58:58.166Z,14.80
2022-10-28T22:01:25.687Z,14.80
2022-10-28T22:03:57.654Z,14.70
2022-10-28T22:06:35.682Z,14.70
2022-10-28T22:09:05.642Z,14.70
2022-10-28T22:11:35.361Z,14.70
2022-10-28T22:14:05.928Z,14.60
2022-10-28T22:16:35.286Z,14.50
2022-10-28T22:19:06.075Z,14.50
2022-10-28T22:21:39.208Z,14.60
2022-10-28T22:24:07.800Z,14.40
2022-10-28T22:26:35.183Z,14.40
2022-10-28T22:29:02.468Z,14.30
2022-10-28T22:31:34.192Z,14.30
2022-10-28T22:34:01.648Z,14.20
2022-10-28T22:36:30.463Z,14.20
2022-10-28T22:38:58.236Z,14.20
2022-10-28T22:41:28.371Z,14.10
2022-10-28T22:44:01.078Z,14.10
2022-10-28T22:46:30.746Z,14.00
2022-10-28T22:48:58.123Z,14.00
2022-10-28T22:51:25.672Z,14.10
2022-10-28T22:53:52.720Z,13.90
2022-10-28T22:56:24.888Z,13.90
2022-10-28T22:58:57.358Z,15.30
2022-10-28T23:01:26.676Z,13.80
2022-10-28T23:03:55.960Z,13.80
2022-10-28T23:06:25.957Z,13.70
2022-10-28T23:08:53.680Z,13.70
2022-10-28T23:11:21.801Z,13.60
2022-10-28T23:13:53.503Z,13.70
2022-10-28T23:16:22.285Z,13.70
2022-10-28T23:18:49.649Z,13.70
2022-10-28T23:21:23.031Z,13.70
2022-10-28T23:23:55.279Z,13.70
2022-10-28T23:26:25.126Z,13.60
2022-10-28T23:28:55.087Z,13.60
2022-10-28T23:31:23.093Z,13.50
2022-10-28T23:33:50.918Z,14.30
2022-10-28T23:36:18.456Z,13.50
2022-10-28T23:38:45.660Z,13.40
2022-10-28T23:41:16.294Z,13.30
2022-10-28T23:43:43.639Z,13.30
2022-10-28T23:46:11.016Z,13.30
2022-10-28T23:48:38.446Z,13.30
2022-10-28T23:51:06.020Z,13.30
2022-10-28T23:53:33.231Z,13.30
2022-10-28T23:56:00.409Z,13.30
2022-10-28T23:58:27.928Z,13.30
